sensor_id;sensor_type;location;lat;lon;timestamp;P1;durP1;ratioP1;P2;durP2;ratioP2
46561;SDS011;32289;42.688;23.330;2022-12-18T00:01:51;6.40;;;3.40;;
46561;SDS011;32289;42.688;23.330;2022-12-18T00:05:32;5.10;;;2.78;;
46561;SDS011;32289;42.688;23.330;2022-12-18T00:09:13;6.65;;;3.45;;
46561;SDS011;32289;42.688;23.330;2022-12-18T00:12:54;7.03;;;2.38;;
46561;SDS011;32289;42.688;23.330;2022-12-18T00:16:36;6.55;;;3.22;;
46561;SDS011;32289;42.688;23.330;2022-12-18T00:20:17;6.65;;;3.75;;
46561;SDS011;32289;42.688;23.330;2022-12-18T00:24:03;5.57;;;3.20;;
46561;SDS011;32289;42.688;23.330;2022-12-18T00:27:44;7.82;;;3.03;;
46561;SDS011;32289;42.688;23.330;2022-12-18T00:31:25;6.70;;;3.35;;
46561;SDS011;32289;42.688;23.330;2022-12-18T00:35:07;5.07;;;3.20;;
46561;SDS011;32289;42.688;23.330;2022-12-18T00:38:48;4.97;;;2.42;;
46561;SDS011;32289;42.688;23.330;2022-12-18T00:42:28;9.00;;;3.47;;
46561;SDS011;32289;42.688;23.330;2022-12-18T00:46:28;6.05;;;3.05;;
46561;SDS011;32289;42.688;23.330;2022-12-18T00:50:10;6.85;;;3.35;;
46561;SDS011;32289;42.688;23.330;2022-12-18T00:53:51;5.43;;;3.00;;
46561;SDS011;32289;42.688;23.330;2022-12-18T00:57:32;7.97;;;3.50;;
46561;SDS011;32289;42.688;23.330;2022-12-18T01:01:13;4.93;;;2.83;;
46561;SDS011;32289;42.688;23.330;2022-12-18T01:04:54;9.05;;;3.17;;
46561;SDS011;32289;42.688;23.330;2022-12-18T01:08:35;4.68;;;2.40;;
46561;SDS011;32289;42.688;23.330;2022-12-18T01:12:21;5.85;;;3.22;;
46561;SDS011;32289;42.688;23.330;2022-12-18T01:16:02;6.30;;;2.88;;
46561;SDS011;32289;42.688;23.330;2022-12-18T01:19:43;6.38;;;3.13;;
46561;SDS011;32289;42.688;23.330;2022-12-18T01:23:23;5.60;;;2.67;;
46561;SDS011;32289;42.688;23.330;2022-12-18T01:27:04;9.15;;;3.90;;
46561;SDS011;32289;42.688;23.330;2022-12-18T01:30:45;7.13;;;3.25;;
46561;SDS011;32289;42.688;23.330;2022-12-18T01:34:25;9.05;;;3.45;;
46561;SDS011;32289;42.688;23.330;2022-12-18T01:38:06;7.72;;;3.70;;
46561;SDS011;32289;42.688;23.330;2022-12-18T01:41:47;9.23;;;4.35;;
46561;SDS011;32289;42.688;23.330;2022-12-18T01:45:43;6.93;;;3.15;;
46561;SDS011;32289;42.688;23.330;2022-12-18T01:49:23;8.23;;;3.67;;
46561;SDS011;32289;42.688;23.330;2022-12-18T01:57:01;6.68;;;3.53;;
46561;SDS011;32289;42.688;23.330;2022-12-18T02:00:42;7.07;;;3.67;;
46561;SDS011;32289;42.688;23.330;2022-12-18T02:04:24;7.05;;;3.85;;
46561;SDS011;32289;42.688;23.330;2022-12-18T02:11:56;6.13;;;3.80;;
46561;SDS011;32289;42.688;23.330;2022-12-18T02:15:56;6.30;;;3.17;;
46561;SDS011;32289;42.688;23.330;2022-12-18T02:23:42;6.60;;;3.33;;
46561;SDS011;32289;42.688;23.330;2022-12-18T02:27:44;4.53;;;2.78;;
46561;SDS011;32289;42.688;23.330;2022-12-18T02:31:28;7.53;;;3.42;;
46561;SDS011;32289;42.688;23.330;2022-12-18T02:35:13;6.65;;;3.15;;
46561;SDS011;32289;42.688;23.330;2022-12-18T02:38:59;7.75;;;3.67;;
46561;SDS011;32289;42.688;23.330;2022-12-18T02:42:41;6.28;;;3.58;;
46561;SDS011;32289;42.688;23.330;2022-12-18T02:46:35;6.03;;;2.95;;
46561;SDS011;32289;42.688;23.330;2022-12-18T02:50:24;6.80;;;3.22;;
46561;SDS011;32289;42.688;23.330;2022-12-18T02:54:24;4.70;;;3.25;;
46561;SDS011;32289;42.688;23.330;2022-12-18T02:58:18;6.05;;;3.45;;
46561;SDS011;32289;42.688;23.330;2022-12-18T03:02:32;5.88;;;3.28;;
46561;SDS011;32289;42.688;23.330;2022-12-18T03:10:21;5.97;;;2.83;;
46561;SDS011;32289;42.688;23.330;2022-12-18T03:14:07;8.27;;;3.63;;
46561;SDS011;32289;42.688;23.330;2022-12-18T03:17:52;7.10;;;4.00;;
46561;SDS011;32289;42.688;23.330;2022-12-18T03:21:43;7.20;;;3.80;;
46561;SDS011;32289;42.688;23.330;2022-12-18T03:25:27;7.38;;;3.67;;
46561;SDS011;32289;42.688;23.330;2022-12-18T03:29:12;8.10;;;3.25;;
46561;SDS011;32289;42.688;23.330;2022-12-18T03:33:02;12.95;;;3.63;;
46561;SDS011;32289;42.688;23.330;2022-12-18T03:36:48;8.80;;;3.42;;
46561;SDS011;32289;42.688;23.330;2022-12-18T03:40:53;5.72;;;2.80;;
46561;SDS011;32289;42.688;23.330;2022-12-18T03:44:41;8.35;;;3.80;;
46561;SDS011;32289;42.688;23.330;2022-12-18T03:48:37;6.65;;;3.60;;
46561;SDS011;32289;42.688;23.330;2022-12-18T03:52:26;6.57;;;3.25;;
46561;SDS011;32289;42.688;23.330;2022-12-18T03:56:16;7.03;;;3.20;;
46561;SDS011;32289;42.688;23.330;2022-12-18T04:00:00;4.95;;;3.20;;
46561;SDS011;32289;42.688;23.330;2022-12-18T04:03:45;6.95;;;3.40;;
46561;SDS011;32289;42.688;23.330;2022-12-18T04:07:29;8.90;;;3.55;;
46561;SDS011;32289;42.688;23.330;2022-12-18T04:11:10;7.07;;;3.42;;
46561;SDS011;32289;42.688;23.330;2022-12-18T04:14:51;11.18;;;4.35;;
46561;SDS011;32289;42.688;23.330;2022-12-18T04:18:32;6.68;;;3.58;;
46561;SDS011;32289;42.688;23.330;2022-12-18T04:22:12;9.55;;;3.78;;
46561;SDS011;32289;42.688;23.330;2022-12-18T04:25:54;10.48;;;4.55;;
46561;SDS011;32289;42.688;23.330;2022-12-18T04:29:35;6.93;;;3.10;;
46561;SDS011;32289;42.688;23.330;2022-12-18T04:33:15;7.47;;;4.25;;
46561;SDS011;32289;42.688;23.330;2022-12-18T04:36:56;11.48;;;5.07;;
46561;SDS011;32289;42.688;23.330;2022-12-18T04:40:37;8.18;;;4.53;;
46561;SDS011;32289;42.688;23.330;2022-12-18T04:44:18;8.10;;;4.15;;
46561;SDS011;32289;42.688;23.330;2022-12-18T04:47:59;10.15;;;4.82;;
46561;SDS011;32289;42.688;23.330;2022-12-18T04:51:40;14.43;;;5.68;;
46561;SDS011;32289;42.688;23.330;2022-12-18T04:55:21;9.68;;;4.53;;
46561;SDS011;32289;42.688;23.330;2022-12-18T04:59:02;8.60;;;4.30;;
46561;SDS011;32289;42.688;23.330;2022-12-18T05:02:42;12.60;;;4.40;;
46561;SDS011;32289;42.688;23.330;2022-12-18T05:06:23;18.50;;;5.22;;
46561;SDS011;32289;42.688;23.330;2022-12-18T05:10:04;11.30;;;4.93;;
46561;SDS011;32289;42.688;23.330;2022-12-18T05:13:48;10.73;;;4.88;;
46561;SDS011;32289;42.688;23.330;2022-12-18T05:17:29;10.40;;;4.95;;
46561;SDS011;32289;42.688;23.330;2022-12-18T05:21:09;11.30;;;5.53;;
46561;SDS011;32289;42.688;23.330;2022-12-18T05:24:50;8.88;;;4.82;;
46561;SDS011;32289;42.688;23.330;2022-12-18T05:28:36;11.68;;;5.03;;
46561;SDS011;32289;42.688;23.330;2022-12-18T05:32:17;11.63;;;5.43;;
46561;SDS011;32289;42.688;23.330;2022-12-18T05:35:58;14.30;;;4.78;;
46561;SDS011;32289;42.688;23.330;2022-12-18T05:39:41;11.80;;;4.93;;
46561;SDS011;32289;42.688;23.330;2022-12-18T05:43:24;11.30;;;4.53;;
46561;SDS011;32289;42.688;23.330;2022-12-18T05:47:08;14.63;;;6.15;;
46561;SDS011;32289;42.688;23.330;2022-12-18T05:50:49;14.43;;;5.85;;
46561;SDS011;32289;42.688;23.330;2022-12-18T05:54:30;11.52;;;5.63;;
46561;SDS011;32289;42.688;23.330;2022-12-18T05:58:11;10.80;;;5.13;;
46561;SDS011;32289;42.688;23.330;2022-12-18T06:01:53;13.25;;;5.68;;
46561;SDS011;32289;42.688;23.330;2022-12-18T06:05:39;10.82;;;4.72;;
46561;SDS011;32289;42.688;23.330;2022-12-18T06:09:22;11.63;;;6.47;;
46561;SDS011;32289;42.688;23.330;2022-12-18T06:13:03;15.23;;;6.53;;
46561;SDS011;32289;42.688;23.330;2022-12-18T06:16:45;14.23;;;6.45;;
46561;SDS011;32289;42.688;23.330;2022-12-18T06:20:25;9.38;;;5.20;;
46561;SDS011;32289;42.688;23.330;2022-12-18T06:24:06;11.15;;;5.13;;
46561;SDS011;32289;42.688;23.330;2022-12-18T06:27:47;9.73;;;4.93;;
46561;SDS011;32289;42.688;23.330;2022-12-18T06:31:28;11.05;;;4.80;;
46561;SDS011;32289;42.688;23.330;2022-12-18T06:35:09;12.85;;;6.45;;
46561;SDS011;32289;42.688;23.330;2022-12-18T06:38:50;10.48;;;4.97;;
46561;SDS011;32289;42.688;23.330;2022-12-18T06:42:30;12.07;;;5.68;;
46561;SDS011;32289;42.688;23.330;2022-12-18T06:46:12;11.05;;;5.43;;
46561;SDS011;32289;42.688;23.330;2022-12-18T06:49:53;14.77;;;6.43;;
46561;SDS011;32289;42.688;23.330;2022-12-18T06:53:33;12.95;;;5.07;;
46561;SDS011;32289;42.688;23.330;2022-12-18T06:57:14;11.90;;;5.93;;
46561;SDS011;32289;42.688;23.330;2022-12-18T07:01:04;7.82;;;4.13;;
46561;SDS011;32289;42.688;23.330;2022-12-18T07:04:50;12.20;;;5.85;;
46561;SDS011;32289;42.688;23.330;2022-12-18T07:08:31;12.90;;;5.85;;
46561;SDS011;32289;42.688;23.330;2022-12-18T07:12:13;12.20;;;4.80;;
46561;SDS011;32289;42.688;23.330;2022-12-18T07:15:55;13.68;;;5.07;;
46561;SDS011;32289;42.688;23.330;2022-12-18T07:19:42;13.30;;;5.80;;
46561;SDS011;32289;42.688;23.330;2022-12-18T07:23:23;12.23;;;5.57;;
46561;SDS011;32289;42.688;23.330;2022-12-18T07:27:04;13.90;;;6.32;;
46561;SDS011;32289;42.688;23.330;2022-12-18T07:30:45;15.18;;;5.28;;
46561;SDS011;32289;42.688;23.330;2022-12-18T07:34:27;18.30;;;5.95;;
46561;SDS011;32289;42.688;23.330;2022-12-18T07:38:09;12.73;;;6.15;;
46561;SDS011;32289;42.688;23.330;2022-12-18T07:41:49;15.55;;;6.63;;
46561;SDS011;32289;42.688;23.330;2022-12-18T07:45:49;16.27;;;6.07;;
46561;SDS011;32289;42.688;23.330;2022-12-18T07:49:30;18.63;;;6.93;;
46561;SDS011;32289;42.688;23.330;2022-12-18T07:53:11;17.23;;;6.78;;
46561;SDS011;32289;42.688;23.330;2022-12-18T07:56:52;12.85;;;6.30;;
46561;SDS011;32289;42.688;23.330;2022-12-18T08:00:33;14.02;;;7.47;;
46561;SDS011;32289;42.688;23.330;2022-12-18T08:04:14;12.45;;;6.00;;
46561;SDS011;32289;42.688;23.330;2022-12-18T08:07:56;19.02;;;7.85;;
46561;SDS011;32289;42.688;23.330;2022-12-18T08:11:38;17.75;;;7.75;;
46561;SDS011;32289;42.688;23.330;2022-12-18T08:15:19;19.45;;;7.55;;
46561;SDS011;32289;42.688;23.330;2022-12-18T08:19:00;14.80;;;8.23;;
46561;SDS011;32289;42.688;23.330;2022-12-18T08:22:44;21.77;;;8.88;;
46561;SDS011;32289;42.688;23.330;2022-12-18T08:26:25;17.90;;;7.35;;
46561;SDS011;32289;42.688;23.330;2022-12-18T08:30:07;21.60;;;9.25;;
46561;SDS011;32289;42.688;23.330;2022-12-18T08:33:49;12.13;;;6.95;;
46561;SDS011;32289;42.688;23.330;2022-12-18T08:37:32;17.55;;;7.88;;
46561;SDS011;32289;42.688;23.330;2022-12-18T08:41:14;15.85;;;6.25;;
46561;SDS011;32289;42.688;23.330;2022-12-18T08:44:56;20.77;;;6.85;;
46561;SDS011;32289;42.688;23.330;2022-12-18T08:48:38;16.90;;;7.47;;
46561;SDS011;32289;42.688;23.330;2022-12-18T08:52:19;17.08;;;7.18;;
46561;SDS011;32289;42.688;23.330;2022-12-18T08:56:00;14.57;;;6.97;;
46561;SDS011;32289;42.688;23.330;2022-12-18T08:59:40;16.73;;;5.78;;
46561;SDS011;32289;42.688;23.330;2022-12-18T09:03:21;15.07;;;7.22;;
46561;SDS011;32289;42.688;23.330;2022-12-18T09:07:02;15.77;;;6.78;;
46561;SDS011;32289;42.688;23.330;2022-12-18T09:10:44;13.40;;;6.10;;
46561;SDS011;32289;42.688;23.330;2022-12-18T09:14:26;14.10;;;7.80;;
46561;SDS011;32289;42.688;23.330;2022-12-18T09:18:06;17.35;;;6.72;;
46561;SDS011;32289;42.688;23.330;2022-12-18T09:21:47;16.80;;;7.30;;
46561;SDS011;32289;42.688;23.330;2022-12-18T09:25:31;13.95;;;6.63;;
46561;SDS011;32289;42.688;23.330;2022-12-18T09:29:14;12.73;;;4.97;;
46561;SDS011;32289;42.688;23.330;2022-12-18T09:32:55;16.40;;;6.82;;
46561;SDS011;32289;42.688;23.330;2022-12-18T09:36:37;15.73;;;6.75;;
46561;SDS011;32289;42.688;23.330;2022-12-18T09:40:18;13.02;;;5.70;;
46561;SDS011;32289;42.688;23.330;2022-12-18T09:44:09;14.90;;;5.97;;
46561;SDS011;32289;42.688;23.330;2022-12-18T09:47:52;17.23;;;6.65;;
46561;SDS011;32289;42.688;23.330;2022-12-18T09:51:39;13.07;;;6.28;;
46561;SDS011;32289;42.688;23.330;2022-12-18T09:55:35;16.45;;;6.38;;
46561;SDS011;32289;42.688;23.330;2022-12-18T09:59:26;18.58;;;7.28;;
46561;SDS011;32289;42.688;23.330;2022-12-18T10:03:13;19.00;;;6.22;;
46561;SDS011;32289;42.688;23.330;2022-12-18T10:07:02;18.38;;;5.93;;
46561;SDS011;32289;42.688;23.330;2022-12-18T10:19:43;13.05;;;6.63;;
46561;SDS011;32289;42.688;23.330;2022-12-18T10:27:37;14.40;;;5.80;;
46561;SDS011;32289;42.688;23.330;2022-12-18T10:31:21;15.10;;;6.63;;
46561;SDS011;32289;42.688;23.330;2022-12-18T10:35:03;18.63;;;7.40;;
46561;SDS011;32289;42.688;23.330;2022-12-18T10:38:45;13.63;;;6.43;;
46561;SDS011;32289;42.688;23.330;2022-12-18T10:42:25;16.85;;;6.65;;
46561;SDS011;32289;42.688;23.330;2022-12-18T10:49:52;13.48;;;5.53;;
46561;SDS011;32289;42.688;23.330;2022-12-18T10:53:36;20.00;;;8.57;;
46561;SDS011;32289;42.688;23.330;2022-12-18T11:01:16;17.55;;;8.30;;
46561;SDS011;32289;42.688;23.330;2022-12-18T11:05:02;15.15;;;7.30;;
46561;SDS011;32289;42.688;23.330;2022-12-18T11:09:45;14.93;;;6.53;;
46561;SDS011;32289;42.688;23.330;2022-12-18T11:13:23;14.80;;;6.65;;
46561;SDS011;32289;42.688;23.330;2022-12-18T11:17:16;18.77;;;6.50;;
46561;SDS011;32289;42.688;23.330;2022-12-18T11:21:09;13.13;;;6.22;;
46561;SDS011;32289;42.688;23.330;2022-12-18T11:25:02;15.15;;;6.45;;
46561;SDS011;32289;42.688;23.330;2022-12-18T11:28:54;17.75;;;7.68;;
46561;SDS011;32289;42.688;23.330;2022-12-18T11:32:52;16.63;;;7.30;;
46561;SDS011;32289;42.688;23.330;2022-12-18T11:36:43;19.52;;;7.93;;
46561;SDS011;32289;42.688;23.330;2022-12-18T11:40:36;21.40;;;9.65;;
46561;SDS011;32289;42.688;23.330;2022-12-18T11:44:27;19.58;;;7.53;;
46561;SDS011;32289;42.688;23.330;2022-12-18T11:48:19;22.23;;;8.20;;
46561;SDS011;32289;42.688;23.330;2022-12-18T11:52:04;18.95;;;6.55;;
46561;SDS011;32289;42.688;23.330;2022-12-18T11:56:26;14.95;;;6.85;;
46561;SDS011;32289;42.688;23.330;2022-12-18T12:00:20;15.85;;;6.70;;
46561;SDS011;32289;42.688;23.330;2022-12-18T12:16:15;14.75;;;7.05;;
46561;SDS011;32289;42.688;23.330;2022-12-18T12:20:02;13.75;;;7.07;;
46561;SDS011;32289;42.688;23.330;2022-12-18T12:40:01;12.10;;;5.53;;
46561;SDS011;32289;42.688;23.330;2022-12-18T12:43:46;17.00;;;7.32;;
46561;SDS011;32289;42.688;23.330;2022-12-18T12:47:38;18.00;;;7.38;;
46561;SDS011;32289;42.688;23.330;2022-12-18T12:51:28;22.15;;;8.65;;
46561;SDS011;32289;42.688;23.330;2022-12-18T12:55:15;23.45;;;7.57;;
46561;SDS011;32289;42.688;23.330;2022-12-18T12:59:04;17.90;;;7.47;;
46561;SDS011;32289;42.688;23.330;2022-12-18T13:07:16;14.15;;;7.10;;
46561;SDS011;32289;42.688;23.330;2022-12-18T13:11:21;15.60;;;7.03;;
46561;SDS011;32289;42.688;23.330;2022-12-18T13:15:47;15.95;;;6.68;;
46561;SDS011;32289;42.688;23.330;2022-12-18T13:19:30;17.33;;;6.15;;
46561;SDS011;32289;42.688;23.330;2022-12-18T13:27:58;17.80;;;6.05;;
46561;SDS011;32289;42.688;23.330;2022-12-18T13:42:53;22.52;;;8.10;;
46561;SDS011;32289;42.688;23.330;2022-12-18T13:46:53;21.05;;;7.32;;
46561;SDS011;32289;42.688;23.330;2022-12-18T13:50:34;13.65;;;7.40;;
46561;SDS011;32289;42.688;23.330;2022-12-18T13:58:15;13.32;;;5.18;;
46561;SDS011;32289;42.688;23.330;2022-12-18T14:01:57;19.42;;;7.43;;
46561;SDS011;32289;42.688;23.330;2022-12-18T14:05:39;21.65;;;7.13;;
46561;SDS011;32289;42.688;23.330;2022-12-18T14:09:24;18.67;;;6.85;;
46561;SDS011;32289;42.688;23.330;2022-12-18T14:13:13;13.60;;;6.25;;
46561;SDS011;32289;42.688;23.330;2022-12-18T14:16:59;22.80;;;6.97;;
46561;SDS011;32289;42.688;23.330;2022-12-18T14:20:41;18.13;;;7.65;;
46561;SDS011;32289;42.688;23.330;2022-12-18T14:24:26;16.42;;;6.95;;
46561;SDS011;32289;42.688;23.330;2022-12-18T14:28:12;12.45;;;5.72;;
46561;SDS011;32289;42.688;23.330;2022-12-18T14:32:11;18.48;;;6.75;;
46561;SDS011;32289;42.688;23.330;2022-12-18T14:39:40;15.95;;;6.43;;
46561;SDS011;32289;42.688;23.330;2022-12-18T14:43:32;18.58;;;6.95;;
46561;SDS011;32289;42.688;23.330;2022-12-18T14:47:15;17.15;;;5.85;;
46561;SDS011;32289;42.688;23.330;2022-12-18T14:50:57;16.10;;;6.45;;
46561;SDS011;32289;42.688;23.330;2022-12-18T14:54:38;14.45;;;6.63;;
46561;SDS011;32289;42.688;23.330;2022-12-18T14:58:19;18.10;;;9.88;;
46561;SDS011;32289;42.688;23.330;2022-12-18T15:06:14;13.55;;;7.03;;
46561;SDS011;32289;42.688;23.330;2022-12-18T15:10:21;13.10;;;5.40;;
46561;SDS011;32289;42.688;23.330;2022-12-18T15:18:23;12.18;;;4.35;;
46561;SDS011;32289;42.688;23.330;2022-12-18T15:26:08;16.30;;;8.48;;
46561;SDS011;32289;42.688;23.330;2022-12-18T15:37:33;14.35;;;5.80;;
46561;SDS011;32289;42.688;23.330;2022-12-18T15:41:15;15.82;;;6.82;;
46561;SDS011;32289;42.688;23.330;2022-12-18T15:44:59;20.08;;;7.30;;
46561;SDS011;32289;42.688;23.330;2022-12-18T15:48:44;27.67;;;9.82;;
46561;SDS011;32289;42.688;23.330;2022-12-18T15:52:26;16.38;;;5.80;;
46561;SDS011;32289;42.688;23.330;2022-12-18T15:56:10;13.80;;;4.95;;
46561;SDS011;32289;42.688;23.330;2022-12-18T16:00:11;13.63;;;5.25;;
46561;SDS011;32289;42.688;23.330;2022-12-18T16:03:52;15.70;;;5.28;;
46561;SDS011;32289;42.688;23.330;2022-12-18T16:07:33;14.48;;;6.80;;
46561;SDS011;32289;42.688;23.330;2022-12-18T16:11:21;16.77;;;6.60;;
46561;SDS011;32289;42.688;23.330;2022-12-18T16:15:18;14.65;;;5.90;;
46561;SDS011;32289;42.688;23.330;2022-12-18T16:18:59;13.65;;;5.32;;
46561;SDS011;32289;42.688;23.330;2022-12-18T16:22:40;17.63;;;5.68;;
46561;SDS011;32289;42.688;23.330;2022-12-18T16:26:23;15.07;;;5.65;;
46561;SDS011;32289;42.688;23.330;2022-12-18T16:30:03;15.63;;;6.93;;
46561;SDS011;32289;42.688;23.330;2022-12-18T16:33:45;16.77;;;7.18;;
46561;SDS011;32289;42.688;23.330;2022-12-18T16:37:25;13.25;;;5.57;;
46561;SDS011;32289;42.688;23.330;2022-12-18T16:41:14;16.52;;;6.25;;
46561;SDS011;32289;42.688;23.330;2022-12-18T16:45:12;16.73;;;7.75;;
46561;SDS011;32289;42.688;23.330;2022-12-18T16:48:58;19.00;;;7.75;;
46561;SDS011;32289;42.688;23.330;2022-12-18T16:52:39;22.02;;;7.57;;
46561;SDS011;32289;42.688;23.330;2022-12-18T16:56:23;17.77;;;8.13;;
46561;SDS011;32289;42.688;23.330;2022-12-18T17:00:04;20.25;;;8.45;;
46561;SDS011;32289;42.688;23.330;2022-12-18T17:03:53;17.88;;;7.88;;
46561;SDS011;32289;42.688;23.330;2022-12-18T17:07:34;18.15;;;7.05;;
46561;SDS011;32289;42.688;23.330;2022-12-18T17:11:15;21.40;;;7.35;;
46561;SDS011;32289;42.688;23.330;2022-12-18T17:14:56;19.27;;;6.47;;
46561;SDS011;32289;42.688;23.330;2022-12-18T17:18:36;24.73;;;8.25;;
46561;SDS011;32289;42.688;23.330;2022-12-18T17:22:17;14.85;;;6.13;;
46561;SDS011;32289;42.688;23.330;2022-12-18T17:25:58;16.65;;;5.93;;
46561;SDS011;32289;42.688;23.330;2022-12-18T17:29:39;17.08;;;6.60;;
46561;SDS011;32289;42.688;23.330;2022-12-18T17:33:20;15.48;;;6.38;;
46561;SDS011;32289;42.688;23.330;2022-12-18T17:37:02;13.57;;;5.75;;
46561;SDS011;32289;42.688;23.330;2022-12-18T17:40:43;16.58;;;7.63;;
46561;SDS011;32289;42.688;23.330;2022-12-18T17:44:24;16.20;;;6.57;;
46561;SDS011;32289;42.688;23.330;2022-12-18T17:48:05;13.15;;;5.20;;
46561;SDS011;32289;42.688;23.330;2022-12-18T17:51:46;16.42;;;6.80;;
46561;SDS011;32289;42.688;23.330;2022-12-18T17:55:28;12.93;;;5.38;;
46561;SDS011;32289;42.688;23.330;2022-12-18T17:59:09;27.42;;;6.93;;
46561;SDS011;32289;42.688;23.330;2022-12-18T18:02:50;18.33;;;6.60;;
46561;SDS011;32289;42.688;23.330;2022-12-18T18:06:31;15.63;;;6.65;;
46561;SDS011;32289;42.688;23.330;2022-12-18T18:10:12;20.23;;;8.68;;
46561;SDS011;32289;42.688;23.330;2022-12-18T18:13:52;16.58;;;7.20;;
46561;SDS011;32289;42.688;23.330;2022-12-18T18:17:43;15.05;;;7.47;;
46561;SDS011;32289;42.688;23.330;2022-12-18T18:21:23;19.17;;;6.80;;
46561;SDS011;32289;42.688;23.330;2022-12-18T18:25:08;19.15;;;6.40;;
46561;SDS011;32289;42.688;23.330;2022-12-18T18:28:52;19.60;;;5.35;;
46561;SDS011;32289;42.688;23.330;2022-12-18T18:32:33;16.52;;;6.68;;
46561;SDS011;32289;42.688;23.330;2022-12-18T18:36:17;15.57;;;7.15;;
46561;SDS011;32289;42.688;23.330;2022-12-18T18:39:58;24.73;;;7.47;;
46561;SDS011;32289;42.688;23.330;2022-12-18T18:43:39;19.05;;;6.80;;
46561;SDS011;32289;42.688;23.330;2022-12-18T18:47:19;23.08;;;7.70;;
46561;SDS011;32289;42.688;23.330;2022-12-18T18:51:02;27.00;;;8.27;;
46561;SDS011;32289;42.688;23.330;2022-12-18T18:54:47;14.02;;;7.30;;
46561;SDS011;32289;42.688;23.330;2022-12-18T18:58:28;14.57;;;6.40;;
46561;SDS011;32289;42.688;23.330;2022-12-18T19:02:12;17.33;;;8.05;;
46561;SDS011;32289;42.688;23.330;2022-12-18T19:05:54;15.80;;;6.93;;
46561;SDS011;32289;42.688;23.330;2022-12-18T19:09:38;15.23;;;6.55;;
46561;SDS011;32289;42.688;23.330;2022-12-18T19:13:21;17.38;;;7.78;;
46561;SDS011;32289;42.688;23.330;2022-12-18T19:17:03;14.00;;;5.95;;
46561;SDS011;32289;42.688;23.330;2022-12-18T19:20:52;23.27;;;10.68;;
46561;SDS011;32289;42.688;23.330;2022-12-18T19:24:38;21.63;;;11.85;;
46561;SDS011;32289;42.688;23.330;2022-12-18T19:28:20;21.38;;;7.10;;
46561;SDS011;32289;42.688;23.330;2022-12-18T19:32:04;13.57;;;6.72;;
46561;SDS011;32289;42.688;23.330;2022-12-18T19:35:45;13.88;;;6.55;;
46561;SDS011;32289;42.688;23.330;2022-12-18T19:39:26;18.27;;;6.03;;
46561;SDS011;32289;42.688;23.330;2022-12-18T19:43:09;15.55;;;6.88;;
46561;SDS011;32289;42.688;23.330;2022-12-18T19:46:50;16.88;;;7.15;;
46561;SDS011;32289;42.688;23.330;2022-12-18T19:50:31;20.83;;;8.25;;
46561;SDS011;32289;42.688;23.330;2022-12-18T19:54:14;20.65;;;8.60;;
46561;SDS011;32289;42.688;23.330;2022-12-18T19:57:55;18.85;;;6.70;;
46561;SDS011;32289;42.688;23.330;2022-12-18T20:01:37;15.15;;;7.43;;
46561;SDS011;32289;42.688;23.330;2022-12-18T20:05:17;23.23;;;9.05;;
46561;SDS011;32289;42.688;23.330;2022-12-18T20:09:04;17.27;;;7.72;;
46561;SDS011;32289;42.688;23.330;2022-12-18T20:12:46;16.08;;;7.65;;
46561;SDS011;32289;42.688;23.330;2022-12-18T20:16:26;17.83;;;6.53;;
46561;SDS011;32289;42.688;23.330;2022-12-18T20:20:08;11.75;;;6.10;;
46561;SDS011;32289;42.688;23.330;2022-12-18T20:23:49;16.30;;;6.00;;
46561;SDS011;32289;42.688;23.330;2022-12-18T20:27:30;17.58;;;7.38;;
46561;SDS011;32289;42.688;23.330;2022-12-18T20:31:11;12.20;;;6.18;;
46561;SDS011;32289;42.688;23.330;2022-12-18T20:34:52;17.45;;;7.35;;
46561;SDS011;32289;42.688;23.330;2022-12-18T20:38:33;14.73;;;6.82;;
46561;SDS011;32289;42.688;23.330;2022-12-18T20:42:14;18.88;;;6.95;;
46561;SDS011;32289;42.688;23.330;2022-12-18T20:46:01;20.02;;;8.88;;
46561;SDS011;32289;42.688;23.330;2022-12-18T20:49:43;19.45;;;8.50;;
46561;SDS011;32289;42.688;23.330;2022-12-18T20:53:24;16.60;;;6.57;;
46561;SDS011;32289;42.688;23.330;2022-12-18T20:57:05;19.60;;;7.50;;
46561;SDS011;32289;42.688;23.330;2022-12-18T21:00:46;19.05;;;8.30;;
46561;SDS011;32289;42.688;23.330;2022-12-18T21:04:26;19.90;;;7.78;;
46561;SDS011;32289;42.688;23.330;2022-12-18T21:08:08;16.73;;;8.02;;
46561;SDS011;32289;42.688;23.330;2022-12-18T21:11:49;19.33;;;6.72;;
46561;SDS011;32289;42.688;23.330;2022-12-18T21:15:48;17.10;;;7.40;;
46561;SDS011;32289;42.688;23.330;2022-12-18T21:19:31;13.25;;;6.05;;
46561;SDS011;32289;42.688;23.330;2022-12-18T21:23:12;22.67;;;7.47;;
46561;SDS011;32289;42.688;23.330;2022-12-18T21:26:53;15.48;;;6.97;;
46561;SDS011;32289;42.688;23.330;2022-12-18T21:30:33;16.13;;;7.55;;
46561;SDS011;32289;42.688;23.330;2022-12-18T21:34:24;19.42;;;7.35;;
46561;SDS011;32289;42.688;23.330;2022-12-18T21:38:07;17.80;;;7.82;;
46561;SDS011;32289;42.688;23.330;2022-12-18T21:41:48;17.33;;;6.35;;
46561;SDS011;32289;42.688;23.330;2022-12-18T21:45:48;13.43;;;6.68;;
46561;SDS011;32289;42.688;23.330;2022-12-18T21:49:28;22.38;;;7.68;;
46561;SDS011;32289;42.688;23.330;2022-12-18T21:53:10;12.15;;;6.10;;
46561;SDS011;32289;42.688;23.330;2022-12-18T21:56:52;20.13;;;7.28;;
46561;SDS011;32289;42.688;23.330;2022-12-18T22:00:39;14.90;;;7.03;;
46561;SDS011;32289;42.688;23.330;2022-12-18T22:04:21;18.38;;;6.47;;
46561;SDS011;32289;42.688;23.330;2022-12-18T22:08:02;14.93;;;7.07;;
46561;SDS011;32289;42.688;23.330;2022-12-18T22:11:43;11.30;;;6.38;;
46561;SDS011;32289;42.688;23.330;2022-12-18T22:15:23;15.02;;;6.85;;
46561;SDS011;32289;42.688;23.330;2022-12-18T22:19:04;14.10;;;6.55;;
46561;SDS011;32289;42.688;23.330;2022-12-18T22:22:45;18.13;;;7.22;;
46561;SDS011;32289;42.688;23.330;2022-12-18T22:26:28;14.25;;;6.75;;
46561;SDS011;32289;42.688;23.330;2022-12-18T22:30:10;12.93;;;6.90;;
46561;SDS011;32289;42.688;23.330;2022-12-18T22:33:53;18.58;;;7.75;;
46561;SDS011;32289;42.688;23.330;2022-12-18T22:37:34;15.70;;;6.22;;
46561;SDS011;32289;42.688;23.330;2022-12-18T22:41:16;16.92;;;7.45;;
46561;SDS011;32289;42.688;23.330;2022-12-18T22:44:56;16.80;;;6.55;;
46561;SDS011;32289;42.688;23.330;2022-12-18T22:48:39;18.05;;;6.32;;
46561;SDS011;32289;42.688;23.330;2022-12-18T22:52:19;11.68;;;6.60;;
46561;SDS011;32289;42.688;23.330;2022-12-18T22:56:00;13.80;;;7.28;;
46561;SDS011;32289;42.688;23.330;2022-12-18T22:59:41;14.60;;;7.15;;
46561;SDS011;32289;42.688;23.330;2022-12-18T23:03:22;17.10;;;6.95;;
46561;SDS011;32289;42.688;23.330;2022-12-18T23:07:03;14.25;;;5.95;;
46561;SDS011;32289;42.688;23.330;2022-12-18T23:10:44;18.02;;;6.97;;
46561;SDS011;32289;42.688;23.330;2022-12-18T23:14:25;17.83;;;7.70;;
46561;SDS011;32289;42.688;23.330;2022-12-18T23:18:07;15.85;;;7.28;;
46561;SDS011;32289;42.688;23.330;2022-12-18T23:21:47;17.48;;;6.78;;
46561;SDS011;32289;42.688;23.330;2022-12-18T23:25:28;16.13;;;7.25;;
46561;SDS011;32289;42.688;23.330;2022-12-18T23:29:09;17.00;;;7.15;;
46561;SDS011;32289;42.688;23.330;2022-12-18T23:32:50;11.98;;;6.18;;
46561;SDS011;32289;42.688;23.330;2022-12-18T23:36:31;15.68;;;7.30;;
46561;SDS011;32289;42.688;23.330;2022-12-18T23:40:12;14.43;;;6.97;;
46561;SDS011;32289;42.688;23.330;2022-12-18T23:43:53;11.00;;;4.65;;
46561;SDS011;32289;42.688;23.330;2022-12-18T23:47:34;18.42;;;7.05;;